Time;durP1;ratioP1;P1;durP2;ratioP2;P2;SDS_P1;SDS_P2;PMS_P1;PMS_P2;Temp;Humidity;BMP_temperature;BMP_pressure;BME280_temperature;BME280_humidity;BME280_pressure;Samples;Min_cycle;Max_cycle;Signal;HPM_P1;HPM_P2
2021/06/03 00:01:56;;;;;;;8.17;5.67;;;;;17.30;101140.00;;;;10511767;28;20189;-75
2021/06/03 00:06:58;;;;;;;7.80;6.00;;;;;17.20;101144.00;;;;10505835;28;20707;-76
2021/06/03 00:26:36;;;;;;;8.10;5.53;;;;;17.20;101131.00;;;;10484140;28;20182;-76
2021/06/03 00:31:38;;;;;;;6.77;5.90;;;;;17.10;101136.00;;;;10460221;28;20749;-76
2021/06/03 00:36:40;;;;;;;6.40;5.80;;;;;17.10;101135.00;;;;10504446;28;20200;-76
2021/06/03 00:41:42;;;;;;;8.27;6.03;;;;;17.00;101140.00;;;;10509917;28;20201;-76
2021/06/03 00:46:43;;;;;;;7.93;6.23;;;;;17.00;101132.00;;;;10525882;28;20207;-76
2021/06/03 00:51:45;;;;;;;10.57;6.83;;;;;16.90;101130.00;;;;10509140;28;20204;-76
2021/06/03 00:56:48;;;;;;;14.03;7.83;;;;;16.90;101146.00;;;;10509687;28;20207;-76
2021/06/03 01:01:50;;;;;;;8.50;7.70;;;;;16.80;101141.00;;;;10508635;28;20217;-76
2021/06/03 01:06:52;;;;;;;9.47;8.43;;;;;16.70;101146.00;;;;10492669;28;20283;-76
2021/06/03 01:12:16;;;;;;;11.10;8.00;;;;;16.80;101141.00;;;;10485897;28;20576;-76
2021/06/03 01:17:20;;;;;;;11.43;8.80;;;;;16.70;101141.00;;;;10467201;28;20219;-76
2021/06/03 01:22:46;;;;;;;11.60;8.90;;;;;16.70;101142.00;;;;10483403;28;20210;-76
2021/06/03 01:27:51;;;;;;;12.80;8.50;;;;;16.60;101139.00;;;;10492396;28;20205;-76
2021/06/03 01:33:00;;;;;;;12.10;9.17;;;;;16.60;101131.00;;;;10508596;28;20212;-76
2021/06/03 01:38:10;;;;;;;10.97;9.10;;;;;16.50;101137.00;;;;10507077;28;20192;-76
2021/06/03 01:43:15;;;;;;;14.43;8.73;;;;;16.50;101143.00;;;;10524521;28;20258;-76
2021/06/03 01:48:19;;;;;;;12.93;9.27;;;;;16.50;101148.00;;;;10490266;28;20189;-76
2021/06/03 01:53:23;;;;;;;10.63;8.00;;;;;16.40;101134.00;;;;10523705;28;20185;-76
2021/06/03 01:58:25;;;;;;;11.40;8.73;;;;;16.40;101137.00;;;;10472496;28;20220;-76
2021/06/03 02:03:28;;;;;;;10.47;8.47;;;;;16.40;101149.00;;;;10506188;28;20273;-76
2021/06/03 02:08:33;;;;;;;9.57;8.23;;;;;16.40;101149.00;;;;10473875;28;20547;-76
2021/06/03 02:13:45;;;;;;;9.07;8.20;;;;;16.30;101148.00;;;;10523372;28;20188;-76
2021/06/03 02:19:05;;;;;;;13.67;8.27;;;;;16.20;101140.00;;;;10500101;28;20200;-76
2021/06/03 02:24:14;;;;;;;12.63;9.33;;;;;16.20;101145.00;;;;10487912;28;20216;-76
2021/06/03 02:29:20;;;;;;;10.30;9.03;;;;;16.20;101148.00;;;;10506098;28;20273;-76
2021/06/03 02:34:41;;;;;;;12.07;9.23;;;;;16.20;101159.00;;;;10495555;28;20727;-76
2021/06/03 02:39:48;;;;;;;14.47;8.70;;;;;16.30;101154.00;;;;10514123;28;20239;-76
2021/06/03 02:44:52;;;;;;;11.73;9.17;;;;;16.40;101153.00;;;;10496429;28;20256;-76
2021/06/03 02:49:54;;;;;;;12.43;9.77;;;;;16.40;101164.00;;;;10480436;28;20193;-76
2021/06/03 02:54:58;;;;;;;10.07;8.97;;;;;16.40;101168.00;;;;10509982;28;20197;-76
2021/06/03 03:00:00;;;;;;;10.37;9.07;;;;;16.40;101163.00;;;;10505270;28;20203;-76
2021/06/03 03:05:05;;;;;;;11.17;9.50;;;;;16.40;101167.00;;;;10505303;28;20205;-76
2021/06/03 03:10:10;;;;;;;12.47;9.80;;;;;16.50;101181.00;;;;10521298;28;20237;-76
2021/06/03 03:15:15;;;;;;;13.70;9.40;;;;;16.50;101181.00;;;;10503901;28;20193;-76
2021/06/03 03:20:21;;;;;;;12.03;9.77;;;;;16.60;101189.00;;;;10505483;28;20540;-76
2021/06/03 03:25:28;;;;;;;14.43;8.77;;;;;16.60;101186.00;;;;10487710;28;20308;-76
2021/06/03 03:30:41;;;;;;;11.60;9.43;;;;;16.60;101196.00;;;;10480580;28;20185;-77
2021/06/03 03:35:47;;;;;;;11.40;8.87;;;;;16.60;101190.00;;;;10462773;28;20221;-76
2021/06/03 03:40:53;;;;;;;10.70;8.47;;;;;16.60;101188.00;;;;10479574;28;20198;-76
2021/06/03 03:45:58;;;;;;;10.70;8.60;;;;;16.60;101188.00;;;;10479144;28;20202;-77
2021/06/03 03:51:02;;;;;;;12.43;9.37;;;;;16.70;101207.00;;;;10478931;28;20201;-77
2021/06/03 03:56:12;;;;;;;16.60;9.30;;;;;16.90;101206.00;;;;10478359;28;20197;-77
2021/06/03 04:01:15;;;;;;;14.13;10.43;;;;;17.20;101209.00;;;;10461872;28;20201;-77
2021/06/03 04:06:17;;;;;;;15.23;11.23;;;;;17.50;101207.00;;;;10496174;28;20212;-77
2021/06/03 04:11:24;;;;;;;11.47;10.37;;;;;17.70;101206.00;;;;10478937;28;20557;-77
2021/06/03 04:16:29;;;;;;;12.97;10.57;;;;;17.70;101214.00;;;;10485422;28;20656;-77
2021/06/03 04:21:32;;;;;;;11.17;10.07;;;;;17.80;101217.00;;;;10503193;28;20197;-77
2021/06/03 04:26:36;;;;;;;12.10;10.57;;;;;17.90;101229.00;;;;10510814;28;20216;-77
2021/06/03 04:31:37;;;;;;;12.43;9.93;;;;;17.90;101229.00;;;;10526752;28;20683;-77
2021/06/03 04:36:39;;;;;;;11.37;10.27;;;;;18.00;101229.00;;;;10494445;28;20288;-77
2021/06/03 04:41:41;;;;;;;12.73;10.17;;;;;18.10;101236.00;;;;10527004;28;20188;-77
2021/06/03 04:46:43;;;;;;;11.80;10.60;;;;;18.20;101236.00;;;;10493056;28;20205;-77
2021/06/03 04:51:45;;;;;;;11.20;10.20;;;;;18.40;101244.00;;;;10526530;28;20276;-77
2021/06/03 04:56:47;;;;;;;10.53;9.43;;;;;18.50;101247.00;;;;10498821;28;20182;-77
2021/06/03 05:01:49;;;;;;;10.60;9.50;;;;;18.70;101253.00;;;;10503835;28;20602;-77
2021/06/03 05:06:50;;;;;;;10.73;9.63;;;;;18.80;101257.00;;;;10485026;28;20217;-77
2021/06/03 05:11:52;;;;;;;11.53;9.60;;;;;19.10;101267.00;;;;10488880;28;20222;-77
2021/06/03 05:16:54;;;;;;;12.53;9.83;;;;;19.40;101274.00;;;;10526487;28;20212;-77
2021/06/03 05:21:56;;;;;;;13.30;10.00;;;;;19.60;101276.00;;;;10485059;28;20197;-77
2021/06/03 05:26:59;;;;;;;14.30;9.77;;;;;19.70;101282.00;;;;10497963;28;20213;-77
2021/06/03 05:32:02;;;;;;;15.05;10.20;;;;;19.80;101292.00;;;;10501740;28;20259;-77
2021/06/03 05:37:04;;;;;;;14.30;11.23;;;;;19.80;101294.00;;;;10485196;28;20197;-77
2021/06/03 05:42:06;;;;;;;17.75;12.43;;;;;19.70;101294.00;;;;10499626;28;20860;-78
2021/06/03 05:47:08;;;;;;;19.35;11.95;;;;;19.80;101297.00;;;;10508771;28;20220;-77
2021/06/03 05:52:10;;;;;;;15.30;12.40;;;;;19.90;101295.00;;;;10543435;28;20188;-77
2021/06/03 05:57:12;;;;;;;17.17;14.00;;;;;20.00;101304.00;;;;10508918;28;20632;-77
2021/06/03 06:02:20;;;;;;;15.85;13.43;;;;;20.10;101311.00;;;;10508316;28;20288;-77
2021/06/03 06:07:22;;;;;;;17.65;14.00;;;;;20.20;101311.00;;;;10508099;28;20236;-77
2021/06/03 06:12:23;;;;;;;16.50;13.60;;;;;20.30;101319.00;;;;10508187;28;20219;-77
2021/06/03 06:17:25;;;;;;;16.23;13.70;;;;;20.50;101322.00;;;;10524568;28;20234;-77
2021/06/03 06:22:27;;;;;;;17.85;14.52;;;;;20.60;101333.00;;;;10507772;28;20213;-76
2021/06/03 06:27:29;;;;;;;15.77;14.18;;;;;21.00;101343.00;;;;10522689;28;20292;-76
2021/06/03 06:32:31;;;;;;;18.05;14.07;;;;;21.30;101356.00;;;;10483866;28;20233;-76
2021/06/03 06:37:33;;;;;;;17.38;14.70;;;;;21.40;101358.00;;;;10497084;28;20182;-76
2021/06/03 06:42:36;;;;;;;15.57;13.45;;;;;21.60;101371.00;;;;10496538;28;20883;-76
2021/06/03 06:47:38;;;;;;;15.45;13.75;;;;;22.10;101387.00;;;;10463409;28;20775;-76
2021/06/03 06:52:40;;;;;;;17.33;13.63;;;;;22.90;101402.00;;;;10480572;28;20195;-76
2021/06/03 06:57:42;;;;;;;13.25;11.93;;;;;23.30;101407.00;;;;10496905;28;20196;-76
2021/06/03 07:02:44;;;;;;;15.18;11.70;;;;;23.70;101418.00;;;;10521805;28;20220;-76
2021/06/03 07:07:46;;;;;;;16.33;12.43;;;;;23.70;101419.00;;;;10504376;28;20240;-76
2021/06/03 07:12:49;;;;;;;30.10;12.65;;;;;24.80;101424.00;;;;10486522;28;20296;-76
2021/06/03 07:17:53;;;;;;;13.27;11.40;;;;;25.80;101424.00;;;;10479358;28;20190;-76
2021/06/03 07:23:00;;;;;;;12.80;11.25;;;;;26.10;101424.00;;;;10484300;28;21001;-76
2021/06/03 07:28:04;;;;;;;14.13;11.05;;;;;25.70;101429.00;;;;10504678;28;20197;-78
2021/06/03 07:33:06;;;;;;;44.47;14.43;;;;;25.40;101430.00;;;;10504711;28;20236;-76
2021/06/03 07:38:09;;;;;;;11.75;9.75;;;;;24.50;101432.00;;;;10521825;28;20185;-76
2021/06/03 07:43:13;;;;;;;11.23;10.20;;;;;23.90;101436.00;;;;10488053;28;20227;-76
2021/06/03 07:48:15;;;;;;;12.48;10.93;;;;;23.60;101435.00;;;;10479922;28;20224;-77
2021/06/03 07:53:17;;;;;;;13.18;10.40;;;;;23.70;101430.00;;;;10512713;28;20189;-76
2021/06/03 07:58:19;;;;;;;11.25;10.23;;;;;23.90;101430.00;;;;10528340;28;20302;-76
2021/06/03 08:03:20;;;;;;;11.88;10.57;;;;;24.30;101444.00;;;;10502637;28;20197;-76
2021/06/03 08:08:23;;;;;;;11.10;9.98;;;;;24.50;101447.00;;;;10546429;28;20189;-77
2021/06/03 08:13:24;;;;;;;13.05;10.50;;;;;25.30;101448.00;;;;10515216;28;20193;-77
2021/06/03 08:18:26;;;;;;;13.23;9.70;;;;;25.20;101444.00;;;;10493668;28;20208;-78
2021/06/03 08:23:29;;;;;;;14.25;10.95;;;;;25.40;101436.00;;;;10488907;28;20209;-77
2021/06/03 08:28:31;;;;;;;11.43;9.95;;;;;25.60;101438.00;;;;10519955;28;20185;-77
2021/06/03 08:33:33;;;;;;;12.50;10.88;;;;;25.90;101442.00;;;;10487383;28;20267;-77
2021/06/03 08:38:35;;;;;;;12.63;10.80;;;;;25.90;101447.00;;;;10486359;28;20643;-77
2021/06/03 08:43:37;;;;;;;15.15;11.80;;;;;26.00;101453.00;;;;10513542;28;20208;-77
2021/06/03 08:48:39;;;;;;;18.80;11.68;;;;;26.10;101444.00;;;;10462536;28;20216;-77
2021/06/03 08:53:41;;;;;;;15.80;12.15;;;;;26.20;101445.00;;;;10484610;28;20189;-77
2021/06/03 08:58:46;;;;;;;13.10;11.75;;;;;26.50;101449.00;;;;10520205;28;20185;-77
2021/06/03 09:03:49;;;;;;;16.58;12.60;;;;;27.00;101432.00;;;;10514122;28;20246;-77
2021/06/03 09:08:56;;;;;;;14.73;12.55;;;;;27.50;101434.00;;;;10462966;28;20854;-78
2021/06/03 09:14:05;;;;;;;14.70;12.90;;;;;27.60;101439.00;;;;10496917;28;20227;-76
2021/06/03 09:19:13;;;;;;;15.20;12.65;;;;;28.00;101422.00;;;;10511439;28;20196;-76
2021/06/03 09:24:17;;;;;;;12.82;11.25;;;;;28.60;101417.00;;;;10493358;28;20201;-77
2021/06/03 09:29:20;;;;;;;14.77;12.13;;;;;28.60;101417.00;;;;10525024;28;20705;-77
2021/06/03 09:34:22;;;;;;;12.63;11.20;;;;;29.20;101408.00;;;;10476610;28;20625;-77
2021/06/03 09:39:30;;;;;;;15.13;11.05;;;;;29.50;101411.00;;;;10488548;28;20192;-76
2021/06/03 09:44:47;;;;;;;15.35;11.40;;;;;29.60;101407.00;;;;10518152;28;20201;-77
2021/06/03 09:49:59;;;;;;;13.60;10.65;;;;;29.80;101411.00;;;;10514182;28;20287;-77
2021/06/03 09:55:06;;;;;;;12.85;10.82;;;;;30.00;101410.00;;;;10498517;28;20610;-76
2021/06/03 10:00:10;;;;;;;11.70;9.85;;;;;30.00;101411.00;;;;10519685;28;20216;-77
2021/06/03 10:05:20;;;;;;;13.60;11.02;;;;;30.10;101405.00;;;;10499732;28;20213;-77
2021/06/03 10:10:23;;;;;;;16.45;10.40;;;;;29.90;101413.00;;;;10479310;28;20315;-76
2021/06/03 10:15:25;;;;;;;13.30;9.85;;;;;29.40;101416.00;;;;10488326;28;20272;-77
2021/06/03 10:20:34;;;;;;;11.63;10.35;;;;;28.70;101414.00;;;;10503268;28;20205;-76
2021/06/03 10:25:37;;;;;;;14.02;12.07;;;;;28.80;101415.00;;;;10467918;28;20251;-77
2021/06/03 10:30:43;;;;;;;15.32;10.45;;;;;29.20;101409.00;;;;10485547;28;20186;-76
2021/06/03 10:35:48;;;;;;;12.40;9.27;;;;;29.60;101407.00;;;;10474383;28;20229;-77
2021/06/03 10:41:02;;;;;;;16.10;11.57;;;;;30.00;101402.00;;;;10486750;28;20204;-78
2021/06/03 10:46:08;;;;;;;12.80;9.23;;;;;30.70;101409.00;;;;10516883;28;20194;-78
2021/06/03 10:51:11;;;;;;;10.32;9.02;;;;;31.20;101406.00;;;;10484247;28;20212;-78
2021/06/03 10:56:18;;;;;;;12.50;8.93;;;;;30.70;101404.00;;;;10500654;28;20188;-78
2021/06/03 11:01:22;;;;;;;9.57;8.40;;;;;29.70;101390.00;;;;10525949;28;20231;-77
2021/06/03 11:06:30;;;;;;;9.50;8.38;;;;;29.40;101399.00;;;;10503321;28;20641;-78
2021/06/03 11:11:33;;;;;;;12.45;9.05;;;;;29.60;101408.00;;;;10503527;28;20193;-77
2021/06/03 11:16:35;;;;;;;9.65;8.52;;;;;29.30;101404.00;;;;10469308;28;20682;-78
2021/06/03 11:21:43;;;;;;;11.38;9.18;;;;;29.30;101405.00;;;;10469703;28;20887;-78
2021/06/03 11:26:46;;;;;;;11.68;8.98;;;;;28.70;101418.00;;;;10504871;28;20283;-79
2021/06/03 11:31:49;;;;;;;9.80;8.23;;;;;27.90;101420.00;;;;10507071;28;20205;-78
2021/06/03 11:37:03;;;;;;;12.40;9.65;;;;;26.90;101414.00;;;;10535414;28;20262;-78
2021/06/03 11:42:26;;;;;;;12.65;10.38;;;;;26.50;101424.00;;;;10524655;28;20242;-77
2021/06/03 11:47:28;;;;;;;13.25;10.57;;;;;26.50;101430.00;;;;10476929;28;20202;-78
2021/06/03 11:52:31;;;;;;;15.35;11.40;;;;;26.50;101425.00;;;;10509492;28;20644;-78
2021/06/03 11:57:35;;;;;;;15.68;11.27;;;;;27.10;101418.00;;;;10475940;28;20213;-77
2021/06/03 12:02:43;;;;;;;17.13;11.23;;;;;28.30;101416.00;;;;10540756;28;20193;-76
2021/06/03 12:07:50;;;;;;;11.25;8.57;;;;;29.40;101416.00;;;;10552249;28;20181;-76
2021/06/03 12:12:52;;;;;;;11.80;9.65;;;;;30.70;101412.00;;;;10516897;28;20185;-78
2021/06/03 12:17:57;;;;;;;15.35;9.65;;;;;31.80;101412.00;;;;10492494;28;20297;-78
2021/06/03 12:23:03;;;;;;;10.25;9.25;;;;;32.10;101407.00;;;;10518732;28;20197;-77
2021/06/03 12:28:07;;;;;;;12.25;8.65;;;;;32.00;101400.00;;;;10500551;28;20189;-78
2021/06/03 12:33:29;;;;;;;10.48;8.98;;;;;31.70;101407.00;;;;10491655;28;20615;-78
2021/06/03 12:39:02;;;;;;;10.07;8.55;;;;;32.60;101407.00;;;;10523601;28;20228;-78
2021/06/03 12:44:13;;;;;;;8.85;7.95;;;;;33.10;101408.00;;;;10510615;28;20197;-78
2021/06/03 12:49:18;;;;;;;12.35;7.93;;;;;33.50;101393.00;;;;10498210;28;20196;-79
2021/06/03 12:54:30;;;;;;;11.68;8.45;;;;;32.90;101393.00;;;;10515735;28;20208;-78
2021/06/03 12:59:35;;;;;;;8.98;7.00;;;;;32.40;101383.00;;;;10550402;28;20193;-78
2021/06/03 13:04:42;;;;;;;10.48;7.82;;;;;32.20;101381.00;;;;10515676;28;20644;-77
2021/06/03 13:09:53;;;;;;;11.95;7.32;;;;;32.30;101385.00;;;;10514431;28;20195;-78
2021/06/03 13:14:58;;;;;;;10.82;7.85;;;;;33.20;101379.00;;;;10549413;28;20215;-78
2021/06/03 13:20:10;;;;;;;7.70;6.85;;;;;34.30;101372.00;;;;10480811;28;20200;-78
2021/06/03 13:25:12;;;;;;;7.72;6.10;;;;;34.40;101375.00;;;;10498813;28;20193;-79
2021/06/03 13:30:23;;;;;;;10.20;6.60;;;;;36.30;101376.00;;;;10506725;28;20193;-78
2021/06/03 13:35:25;;;;;;;9.65;6.65;;;;;37.50;101366.00;;;;10470392;28;20225;-78
2021/06/03 13:40:41;;;;;;;11.93;6.68;;;;;38.10;101371.00;;;;10486735;28;20287;-78
2021/06/03 13:45:46;;;;;;;10.90;6.47;;;;;37.20;101370.00;;;;10468166;28;20190;-78
2021/06/03 13:50:55;;;;;;;11.35;6.85;;;;;35.20;101372.00;;;;10452933;28;20220;-78
2021/06/03 13:56:33;;;;;;;10.98;7.40;;;;;35.30;101352.00;;;;10473798;28;20679;-78
2021/06/03 14:01:46;;;;;;;8.63;7.00;;;;;38.30;101359.00;;;;10412557;28;20205;-77
2021/06/03 14:06:54;;;;;;;10.52;6.95;;;;;35.70;101363.00;;;;10469863;28;20193;-77
2021/06/03 14:17:17;;;;;;;9.93;6.88;;;;;38.20;101365.00;;;;10526857;28;20208;-78
2021/06/03 14:22:23;;;;;;;8.85;6.60;;;;;39.10;101361.00;;;;10506013;28;20639;-77
2021/06/03 14:27:34;;;;;;;6.85;6.15;;;;;38.10;101360.00;;;;10484215;28;20201;-78
2021/06/03 14:32:50;;;;;;;7.35;6.10;;;;;33.60;101349.00;;;;10489947;28;20266;-77
2021/06/03 14:37:58;;;;;;;10.77;7.40;;;;;38.00;101346.00;;;;10483949;28;20267;-77
2021/06/03 14:43:22;;;;;;;8.48;5.88;;;;;39.80;101345.00;;;;10502040;28;20204;-78
2021/06/03 14:48:26;;;;;;;10.02;5.75;;;;;39.10;101346.00;;;;10521897;28;20201;-77
2021/06/03 14:53:31;;;;;;;7.93;6.47;;;;;36.70;101344.00;;;;10483733;28;20190;-77
2021/06/03 14:58:33;;;;;;;9.32;6.80;;;;;33.90;101355.00;;;;10465195;28;20676;-77
2021/06/03 15:03:36;;;;;;;9.52;7.20;;;;;36.70;101361.00;;;;10508813;28;20200;-78
2021/06/03 15:08:38;;;;;;;7.20;6.50;;;;;33.80;101352.00;;;;10523406;28;20181;-77
2021/06/03 15:13:40;;;;;;;9.07;7.53;;;;;31.00;101335.00;;;;10506627;28;20701;-77
2021/06/03 15:18:41;;;;;;;11.15;6.97;;;;;38.20;101340.00;;;;10510157;28;20235;-77
2021/06/03 15:23:43;;;;;;;8.55;7.13;;;;;39.60;101342.00;;;;10470670;28;20247;-77
2021/06/03 15:28:45;;;;;;;9.05;7.22;;;;;34.00;101350.00;;;;10473584;28;20219;-76
2021/06/03 15:33:47;;;;;;;8.60;6.15;;;;;32.70;101349.00;;;;10479155;28;20692;-76
2021/06/03 15:38:52;;;;;;;10.05;6.53;;;;;30.50;101346.00;;;;10479849;28;20220;-77
2021/06/03 15:43:54;;;;;;;8.95;7.25;;;;;33.10;101332.00;;;;10528661;28;20193;-77
2021/06/03 15:48:56;;;;;;;8.88;5.97;;;;;31.80;101341.00;;;;10520637;28;20589;-77
2021/06/03 15:53:58;;;;;;;7.57;6.30;;;;;31.20;101345.00;;;;10488345;28;20208;-77
2021/06/03 15:59:00;;;;;;;9.13;6.30;;;;;30.60;101345.00;;;;10507065;28;20226;-77
2021/06/03 16:04:02;;;;;;;7.55;5.68;;;;;30.40;101347.00;;;;10524287;28;20192;-79
2021/06/03 16:09:04;;;;;;;11.50;6.55;;;;;30.50;101343.00;;;;10525219;28;20189;-76
2021/06/03 16:14:06;;;;;;;8.63;6.05;;;;;30.20;101355.00;;;;10502871;28;20664;-77
2021/06/03 16:19:08;;;;;;;8.75;5.97;;;;;29.60;101352.00;;;;10498961;28;20209;-77
2021/06/03 16:24:11;;;;;;;10.68;6.40;;;;;29.00;101356.00;;;;10495226;28;20197;-77
2021/06/03 16:29:13;;;;;;;10.65;6.20;;;;;28.60;101356.00;;;;10510487;28;20189;-77
2021/06/03 16:34:15;;;;;;;8.57;6.28;;;;;28.20;101361.00;;;;10520841;28;20233;-76
2021/06/03 16:39:19;;;;;;;9.15;6.65;;;;;28.60;101363.00;;;;10468427;28;20743;-77
2021/06/03 16:44:21;;;;;;;8.05;5.93;;;;;28.60;101360.00;;;;10522622;28;20197;-77
2021/06/03 16:49:23;;;;;;;13.05;6.38;;;;;28.50;101362.00;;;;10497338;28;20189;-78
2021/06/03 16:54:26;;;;;;;9.50;5.53;;;;;28.50;101352.00;;;;10503532;28;20200;-77
2021/06/03 16:59:28;;;;;;;9.90;6.32;;;;;28.30;101350.00;;;;10510635;28;20220;-77
2021/06/03 17:04:30;;;;;;;8.65;5.60;;;;;27.90;101362.00;;;;10477643;28;20193;-78
2021/06/03 17:09:32;;;;;;;6.32;5.63;;;;;27.30;101359.00;;;;10499522;28;20552;-77
2021/06/03 17:14:34;;;;;;;7.95;5.85;;;;;26.80;101360.00;;;;10527944;28;20555;-78
2021/06/03 17:19:36;;;;;;;10.38;6.63;;;;;26.60;101356.00;;;;10531837;28;20564;-78
2021/06/03 17:24:37;;;;;;;9.15;6.30;;;;;26.70;101346.00;;;;10512337;28;20199;-77
2021/06/03 17:29:39;;;;;;;18.63;14.65;;;;;26.50;101351.00;;;;10502276;28;20201;-77
2021/06/03 17:34:41;;;;;;;20.17;15.45;;;;;26.00;101360.00;;;;10494429;28;20228;-77
2021/06/03 17:39:43;;;;;;;21.40;15.82;;;;;26.00;101360.00;;;;10491646;28;20192;-78
2021/06/03 17:44:45;;;;;;;19.88;17.40;;;;;26.00;101368.00;;;;10504194;28;20212;-77
2021/06/03 17:49:48;;;;;;;23.25;18.27;;;;;26.10;101374.00;;;;10492976;28;20227;-77
2021/06/03 17:54:51;;;;;;;21.05;18.42;;;;;26.10;101386.00;;;;10496183;28;20296;-78
2021/06/03 17:59:53;;;;;;;22.10;18.60;;;;;25.90;101388.00;;;;10510572;28;20707;-78
2021/06/03 18:04:54;;;;;;;25.35;18.75;;;;;25.60;101386.00;;;;10546987;28;20192;-77
2021/06/03 18:09:57;;;;;;;23.55;19.95;;;;;25.40;101387.00;;;;10513493;28;20267;-78
2021/06/03 18:14:59;;;;;;;24.52;18.45;;;;;24.90;101400.00;;;;10472937;28;20264;-77
2021/06/03 18:20:05;;;;;;;23.13;18.98;;;;;24.60;101409.00;;;;10451420;28;20555;-77
2021/06/03 18:25:09;;;;;;;20.00;17.33;;;;;24.20;101417.00;;;;10500784;28;20207;-77
2021/06/03 18:30:14;;;;;;;22.95;17.17;;;;;23.70;101424.00;;;;10524182;28;20218;-77
2021/06/03 18:35:17;;;;;;;19.30;15.30;;;;;23.40;101432.00;;;;10526817;28;20213;-78
2021/06/03 18:40:22;;;;;;;22.88;15.98;;;;;23.10;101448.00;;;;10501315;28;20640;-77
2021/06/03 18:45:30;;;;;;;19.30;15.18;;;;;22.70;101453.00;;;;10479993;28;20548;-77
2021/06/03 18:50:38;;;;;;;20.48;15.05;;;;;22.30;101465.00;;;;10500005;28;20544;-77
2021/06/03 18:55:41;;;;;;;24.20;15.15;;;;;22.00;101475.00;;;;10459902;28;20600;-77
2021/06/03 19:00:44;;;;;;;18.90;15.35;;;;;21.80;101485.00;;;;10501512;28;20720;-77
2021/06/03 19:05:46;;;;;;;22.30;15.02;;;;;21.60;101486.00;;;;10525420;28;20192;-77
2021/06/03 19:10:52;;;;;;;21.20;15.52;;;;;21.50;101500.00;;;;10504546;28;20185;-77
2021/06/03 19:15:56;;;;;;;21.95;16.23;;;;;21.40;101515.00;;;;10540778;28;20208;-77
2021/06/03 19:21:07;;;;;;;19.88;15.60;;;;;21.20;101526.00;;;;10499403;28;20201;-77
2021/06/03 19:26:09;;;;;;;20.42;15.07;;;;;21.10;101521.00;;;;10502885;28;20215;-77
2021/06/03 19:31:11;;;;;;;23.05;15.38;;;;;21.00;101524.00;;;;10512176;28;20573;-77
2021/06/03 19:36:13;;;;;;;19.95;15.05;;;;;20.90;101519.00;;;;10503331;28;20540;-77
2021/06/03 19:41:15;;;;;;;23.33;15.00;;;;;20.80;101531.00;;;;10490792;28;20205;-77
2021/06/03 19:46:17;;;;;;;17.80;14.82;;;;;20.70;101542.00;;;;10483736;28;20201;-77
2021/06/03 19:51:19;;;;;;;22.42;14.45;;;;;20.70;101539.00;;;;10503054;28;20197;-77
2021/06/03 19:56:24;;;;;;;15.98;14.10;;;;;20.60;101552.00;;;;10509101;28;20283;-78
2021/06/03 20:01:30;;;;;;;18.65;13.27;;;;;20.50;101547.00;;;;10500723;28;20198;-78
2021/06/03 20:06:32;;;;;;;17.92;13.95;;;;;20.40;101552.00;;;;10495940;28;20536;-78
2021/06/03 20:11:34;;;;;;;18.33;13.30;;;;;20.30;101570.00;;;;10506146;28;20197;-76
2021/06/03 20:16:36;;;;;;;18.27;13.55;;;;;20.10;101561.00;;;;10508747;28;20209;-76
2021/06/03 20:21:38;;;;;;;19.80;13.80;;;;;20.00;101568.00;;;;10503454;28;20234;-78
2021/06/03 20:26:40;;;;;;;17.90;12.82;;;;;20.00;101567.00;;;;10483454;28;20182;-78
2021/06/03 20:31:42;;;;;;;17.35;13.40;;;;;20.00;101573.00;;;;10487332;28;20276;-76
2021/06/03 20:36:44;;;;;;;16.75;12.38;;;;;20.00;101575.00;;;;10539563;28;20945;-76
2021/06/03 20:41:46;;;;;;;16.92;12.80;;;;;19.90;101574.00;;;;10518262;28;20189;-76
2021/06/03 20:46:48;;;;;;;16.02;12.52;;;;;19.90;101578.00;;;;10477502;28;20189;-76
2021/06/03 20:51:51;;;;;;;20.67;13.50;;;;;19.80;101576.00;;;;10486275;28;20193;-77
2021/06/03 20:56:53;;;;;;;16.38;13.68;;;;;19.70;101581.00;;;;10492068;28;20205;-77
2021/06/03 21:01:55;;;;;;;17.73;14.43;;;;;19.60;101592.00;;;;10457385;28;20211;-77
2021/06/03 21:06:57;;;;;;;16.20;13.15;;;;;19.50;101604.00;;;;10494579;28;20238;-76
2021/06/03 21:11:59;;;;;;;18.55;14.55;;;;;19.30;101599.00;;;;10512999;28;20239;-76
2021/06/03 21:17:04;;;;;;;23.27;14.73;;;;;19.20;101597.00;;;;10481360;28;20236;-77
2021/06/03 21:22:08;;;;;;;16.83;14.55;;;;;19.10;101606.00;;;;10476250;28;20196;-77
2021/06/03 21:27:19;;;;;;;19.92;15.25;;;;;18.90;101598.00;;;;10489453;28;20177;-77
2021/06/03 21:32:21;;;;;;;24.02;15.80;;;;;18.90;101598.00;;;;10517688;28;20591;-77
2021/06/03 21:37:23;;;;;;;20.40;14.88;;;;;18.80;101597.00;;;;10500143;28;20691;-77
2021/06/03 21:42:28;;;;;;;21.25;15.73;;;;;18.70;101591.00;;;;10534384;28;20871;-77
2021/06/03 21:47:30;;;;;;;19.95;15.82;;;;;18.60;101598.00;;;;10487274;28;20188;-78
2021/06/03 21:52:33;;;;;;;25.93;16.00;;;;;18.60;101599.00;;;;10508593;28;20209;-77
2021/06/03 21:57:35;;;;;;;19.95;16.95;;;;;18.50;101594.00;;;;10517321;28;20205;-77
2021/06/03 22:02:38;;;;;;;21.10;17.00;;;;;18.50;101602.00;;;;10477655;28;20640;-77
2021/06/03 22:07:40;;;;;;;21.80;16.70;;;;;18.50;101594.00;;;;10483625;28;20235;-77
2021/06/03 22:12:45;;;;;;;22.90;16.77;;;;;18.40;101590.00;;;;10506790;28;20193;-77
2021/06/03 22:17:48;;;;;;;26.00;18.93;;;;;18.30;101592.00;;;;10514257;28;20335;-77
2021/06/03 22:22:50;;;;;;;26.20;17.88;;;;;18.20;101584.00;;;;10464633;28;20587;-77
2021/06/03 22:27:56;;;;;;;23.58;17.98;;;;;18.20;101585.00;;;;10494442;28;20216;-77
2021/06/03 22:33:00;;;;;;;23.33;19.27;;;;;18.10;101576.00;;;;10482977;28;20245;-77
2021/06/03 22:38:05;;;;;;;26.45;21.58;;;;;18.00;101576.00;;;;10483009;28;20280;-77
2021/06/03 22:43:07;;;;;;;25.80;20.90;;;;;18.00;101589.00;;;;10504789;28;20203;-77
2021/06/03 22:48:13;;;;;;;26.92;22.33;;;;;18.10;101582.00;;;;10484544;28;20192;-77
2021/06/03 22:53:18;;;;;;;27.97;22.40;;;;;18.20;101577.00;;;;10522633;28;20556;-77
2021/06/03 22:58:21;;;;;;;34.43;21.97;;;;;18.20;101583.00;;;;10495905;28;20682;-77
2021/06/03 23:03:23;;;;;;;27.17;23.13;;;;;18.30;101583.00;;;;10522137;28;20282;-77
2021/06/03 23:08:36;;;;;;;26.80;21.70;;;;;18.30;101579.00;;;;10504871;28;20193;-77
2021/06/03 23:13:40;;;;;;;26.52;21.17;;;;;18.30;101576.00;;;;10520760;28;20193;-77
2021/06/03 23:18:42;;;;;;;29.77;22.50;;;;;18.30;101584.00;;;;10492483;28;20197;-77
2021/06/03 23:23:45;;;;;;;32.22;23.00;;;;;18.20;101586.00;;;;10532436;28;20697;-77
2021/06/03 23:28:47;;;;;;;28.17;21.37;;;;;18.20;101578.00;;;;10494829;28;20205;-77
2021/06/03 23:33:49;;;;;;;29.87;24.10;;;;;18.20;101578.00;;;;10459337;28;20270;-77
2021/06/03 23:38:51;;;;;;;31.27;23.70;;;;;18.20;101577.00;;;;10486970;28;20201;-77
2021/06/03 23:43:54;;;;;;;30.27;21.70;;;;;18.10;101576.00;;;;10507315;28;20193;-77
2021/06/03 23:48:57;;;;;;;29.20;21.77;;;;;18.00;101564.00;;;;10518370;28;20193;-77
2021/06/03 23:53:59;;;;;;;30.37;23.97;;;;;17.90;101566.00;;;;10527232;28;20246;-77
2021/06/03 23:59:01;;;;;;;32.40;22.93;;;;;17.70;101578.00;;;;10499895;28;20216;-77
